Latest Weather Observations for Wyndham Airport

IDW60801

Issued at 5:32 pm WST Friday 22 May 2015 (issued every 30 minutes, with the page automatically refreshed every 10 minutes)

About weather observations | Map of weather stations | Latest weather observations for WA | Other Formats
Station Details ID: 001006 Name: WYNDHAM AERO Lat: -15.51 Lon: 128.15 Height: 3.8 m
Data from the previous 72 hours. | See also: Recent months for locations in Western Australia
Date/Time
WST
Temp
°C
App
Temp
°C
Dew
Point
Rel
Hum
%
Delta-T
°C
Wind Press
QNH
hPa
Press
MSL
hPa
Rain
since 9 am
mm
Dir
 
Spd
km/h
Gust
km/h
Spd
kts
Gust
kts
22/05:30pm 29.8 27.7 11.3 32 10.7 ESE 13 13 7 7 1014.4 1014.4 0.0
22/05:00pm 31.7 29.5 12.0 30 11.6 E 15 19 8 10 1013.9 1013.9 0.0
22/04:30pm 33.0 30.2 11.5 27 12.6 ESE 17 22 9 12 1013.7 1013.7 0.0
22/04:00pm 33.7 31.7 11.5 26 13.1 E 13 19 7 10 1013.5 1013.5 0.0
22/03:30pm 34.1 30.9 11.9 26 13.2 ESE 20 28 11 15 1013.3 1013.3 0.0
22/03:00pm 33.8 31.1 11.6 26 13.1 ESE 17 30 9 16 1013.3 1013.3 0.0
22/02:30pm 34.7 32.0 11.8 25 13.6 E 17 28 9 15 1013.3 1013.3 0.0
22/02:00pm 34.4 32.4 11.5 25 13.5 E 13 24 7 13 1013.6 1013.6 0.0
22/01:30pm 33.9 31.8 11.1 25 13.3 ENE 13 24 7 13 1013.9 1013.9 0.0
22/01:00pm 34.1 31.3 11.3 25 13.4 E 17 32 9 17 1014.2 1014.2 0.0
22/12:30pm 33.7 30.4 10.9 25 13.3 ESE 19 28 10 15 1014.5 1014.5 0.0
22/12:00pm 33.6 30.7 10.9 25 13.2 ENE 17 28 9 15 1015.1 1015.1 0.0
22/11:30am 33.4 29.6 11.3 26 12.9 E 22 33 12 18 1015.6 1015.6 0.0
22/11:00am 32.8 29.3 10.8 26 12.7 E 20 33 11 18 1016.2 1016.2 0.0
22/10:30am 32.6 29.0 10.6 26 12.7 E 20 30 11 16 1016.6 1016.6 0.0
22/10:00am 31.9 27.6 10.6 27 12.2 ESE 24 33 13 18 1016.9 1016.9 0.0
22/09:30am 31.1 26.7 10.4 28 11.8 ESE 24 33 13 18 1017.1 1017.1 0.0
22/09:00am 30.7 25.6 10.6 29 11.5 ESE 28 41 15 22 1017.5 1017.5 0.0
22/08:30am 30.6 25.1 10.5 29 11.5 ESE 30 41 16 22 1017.4 1017.4 0.0
22/08:00am 29.7 25.4 10.8 31 10.8 ESE 24 35 13 19 1017.0 1017.0 0.0
22/07:30am 29.2 24.5 10.8 32 10.5 ESE 26 33 14 18 1016.7 1016.7 0.0
22/07:00am 29.2 24.9 10.8 32 10.5 ESE 24 30 13 16 1016.5 1016.5 0.0
22/06:30am 28.4 25.1 11.0 34 9.9 ESE 19 24 10 13 1016.3 1016.3 0.0
22/06:00am 26.9 24.4 11.0 37 9.0 E 15 17 8 9 1015.8 1015.8 0.0
22/05:30am 26.8 24.3 10.9 37 9.0 E 15 19 8 10 1015.4 1015.4 0.0
22/05:00am 26.4 24.2 10.9 38 8.7 E 13 15 7 8 1015.2 1015.2 0.0
22/04:30am 26.7 24.1 10.8 37 9.0 ESE 15 17 8 9 1014.8 1014.8 0.0
22/04:00am 26.6 24.2 11.5 39 8.6 ESE 15 19 8 10 1014.5 1014.5 0.0
22/03:30am 24.6 22.4 10.8 42 7.7 ESE 13 15 7 8 1014.4 1014.4 0.0
22/03:00am 25.5 23.8 11.3 41 8.0 E 11 15 6 8 1014.4 1014.4 0.0
22/02:30am 24.8 23.0 11.0 42 7.7 E 11 15 6 8 1014.3 1014.3 0.0
22/02:00am 24.9 22.8 11.1 42 7.7 E 13 15 7 8 1014.3 1014.3 0.0
22/01:30am 26.5 24.4 11.0 38 8.8 E 13 15 7 8 1014.5 1014.5 0.0
22/01:00am 27.7 24.6 11.7 37 9.2 E 19 20 10 11 1014.7 1014.7 0.0
22/12:30am 26.5 24.8 13.6 45 7.6 E 15 20 8 11 1014.9 1014.9 0.0
22/12:00am 26.1 25.6 14.9 50 6.7 E 11 13 6 7 1014.9 1014.9 0.0
 
Date/Time
WST
Temp
°C
App
Temp
°C
Dew
Point
Rel
Hum
%
Delta-T
°C
Wind Press
QNH
hPa
Press
MSL
hPa
Rain
since 9 am
mm
Dir
 
Spd
km/h
Gust
km/h
Spd
kts
Gust
kts
21/11:30pm 24.3 22.9 13.5 51 6.3 ESE 13 17 7 9 1015.1 1015.1 0.0
21/11:00pm 24.8 23.6 14.0 51 6.4 ESE 13 15 7 8 1014.8 1014.8 0.0
21/10:30pm 25.7 23.8 14.2 49 6.8 E 17 19 9 10 1014.8 1014.8 0.0
21/10:00pm 26.2 24.9 13.7 46 7.4 E 13 13 7 7 1014.7 1014.7 0.0
21/09:30pm 26.2 25.7 13.7 46 7.4 ENE 9 11 5 6 1014.7 1014.7 0.0
21/09:00pm 26.2 27.4 13.7 46 7.4 CALM 0 0 0 0 1014.8 1014.8 0.0
21/08:30pm 27.8 27.9 14.4 43 8.0 S 7 13 4 7 1014.8 1014.8 0.0
21/08:00pm 28.9 28.7 14.7 42 8.6 SSW 9 13 5 7 1014.7 1014.7 0.0
21/07:30pm 28.9 28.9 15.1 43 8.4 SW 9 13 5 7 1014.6 1014.6 0.0
21/07:00pm 31.2 29.7 13.0 33 10.8 N 13 17 7 9 1014.0 1014.0 0.0
21/06:30pm 31.5 28.4 12.3 31 11.3 N 20 26 11 14 1013.6 1013.6 0.0
21/06:00pm 31.8 29.0 12.6 31 11.4 N 19 26 10 14 1013.4 1013.4 0.0
21/05:30pm 32.1 29.5 13.8 33 11.1 N 20 28 11 15 1013.1 1013.1 0.0
21/05:00pm 32.8 30.1 12.9 29 11.9 N 19 28 10 15 1012.8 1012.8 0.0
21/04:30pm 33.8 30.8 12.7 27 12.6 N 20 32 11 17 1012.5 1012.5 0.0
21/04:00pm 35.7 32.5 10.0 21 14.9 ENE 17 24 9 13 1012.1 1012.1 0.0
21/03:30pm 36.4 33.9 9.8 20 15.4 ENE 13 24 7 13 1011.9 1011.9 0.0
21/03:00pm 36.8 33.5 9.4 19 15.8 E 17 28 9 15 1011.8 1011.8 0.0
21/02:30pm 36.9 33.6 9.5 19 15.9 E 17 28 9 15 1011.7 1011.7 0.0
21/02:00pm 36.5 34.1 9.9 20 15.5 E 13 20 7 11 1011.8 1011.8 0.0
21/01:30pm 37.0 34.1 9.6 19 15.9 E 15 28 8 15 1012.1 1012.1 0.0
21/01:00pm 37.1 33.4 9.6 19 16.0 SE 19 26 10 14 1012.3 1012.3 0.0
21/12:30pm 36.8 34.0 8.6 18 16.1 SE 13 24 7 13 1012.8 1012.8 0.0
21/12:00pm 36.3 34.4 9.0 19 15.6 SSE 9 15 5 8 1013.5 1013.5 0.0
21/11:30am 35.4 34.0 9.0 20 15.1 SSW 6 13 3 7 1014.0 1014.0 0.0
21/11:00am 34.5 34.0 13.9 29 12.6 NW 9 15 5 8 1014.4 1014.4 0.0
21/10:30am 33.3 33.9 15.3 34 11.2 NW 6 9 3 5 1014.9 1014.9 0.0
21/10:00am 32.3 32.3 16.2 38 10.1 WSW 11 15 6 8 1015.3 1015.3 0.0
21/09:30am 31.4 32.0 16.9 41 9.2 W 9 13 5 7 1015.8 1015.8 0.0
21/09:00am 29.7 30.7 16.8 45 8.1 WSW 7 9 4 5 1016.1 1016.1 0.0
21/08:30am 28.3 29.6 17.2 51 7.0 WSW 6 9 3 5 1016.3 1016.3 0.0
21/08:00am 27.2 29.0 17.4 55 6.1 SW 4 7 2 4 1016.3 1016.3 0.0
21/07:30am 25.5 26.2 16.1 56 5.7 SSW 7 11 4 6 1016.1 1016.1 0.0
21/07:00am 24.6 25.6 16.3 60 5.1 SW 6 7 3 4 1015.9 1015.9 0.0
21/06:30am 23.1 23.9 16.4 66 4.1 NW 7 11 4 6 1015.8 1015.8 0.0
21/06:00am 21.1 21.2 15.6 71 3.3 NW 9 11 5 6 1015.4 1015.4 0.0
21/05:30am 20.8 21.1 14.9 69 3.5 WNW 7 9 4 5 1015.1 1015.1 0.0
21/05:00am 21.2 22.6 14.4 65 4.0 CALM 0 0 0 0 1014.9 1014.9 0.0
21/04:30am 21.6 21.8 14.3 63 4.3 S 6 7 3 4 1014.6 1014.6 0.0
21/04:00am 22.8 23.1 14.9 61 4.7 SSW 7 7 4 4 1014.3 1014.3 0.0
21/03:30am 22.7 22.1 14.5 60 4.8 NNW 11 11 6 6 1014.1 1014.1 0.0
21/03:00am 23.2 23.2 15.3 61 4.7 NNW 9 11 5 6 1014.2 1014.2 0.0
21/02:30am 22.4 22.2 14.8 62 4.5 NW 9 13 5 7 1014.0 1014.0 0.0
21/02:00am 22.3 23.2 15.2 64 4.2 NW 4 7 2 4 1014.3 1014.3 0.0
21/01:30am 22.8 22.9 15.6 64 4.3 WNW 9 11 5 6 1014.4 1014.4 0.0
21/01:00am 22.8 23.5 15.6 64 4.3 WSW 6 7 3 4 1014.8 1014.8 0.0
21/12:30am 23.4 24.1 16.2 64 4.4 SW 7 9 4 5 1015.1 1015.1 0.0
21/12:00am 22.7 23.9 15.8 65 4.1 N 4 9 2 5 1015.2 1015.2 0.0
 
Date/Time
WST
Temp
°C
App
Temp
°C
Dew
Point
Rel
Hum
%
Delta-T
°C
Wind Press
QNH
hPa
Press
MSL
hPa
Rain
since 9 am
mm
Dir
 
Spd
km/h
Gust
km/h
Spd
kts
Gust
kts
20/11:30pm 23.0 22.5 14.8 60 4.9 WNW 11 13 6 7 1015.2 1015.2 0.0
20/11:00pm 23.3 24.8 15.6 62 4.6 NE 2 6 1 3 1015.3 1015.3 0.0
20/10:30pm 23.7 23.9 16.7 65 4.3 E 11 13 6 7 1015.5 1015.5 0.0
20/10:00pm 23.8 24.1 16.1 62 4.7 ENE 9 11 5 6 1015.6 1015.6 0.0
20/09:30pm 25.2 24.5 16.3 57 5.5 SE 15 17 8 9 1015.4 1015.4 0.0
20/09:00pm 25.5 24.6 14.9 52 6.4 E 13 15 7 8 1015.2 1015.2 0.0
20/08:30pm 26.3 25.9 14.1 47 7.2 ENE 9 11 5 6 1015.2 1015.2 0.0
20/08:00pm 27.0 25.9 15.4 49 7.1 SSW 15 17 8 9 1015.1 1015.1 0.0
20/07:30pm 27.8 27.5 15.5 47 7.5 W 11 17 6 9 1014.8 1014.8 0.0
20/07:00pm 29.0 28.7 12.8 36 9.5 SW 6 9 3 5 1014.4 1014.4 0.0
20/06:30pm 29.9 27.7 13.2 36 9.9 N 17 22 9 12 1013.8 1013.8 0.0
20/06:00pm 30.1 27.3 14.2 38 9.6 N 22 32 12 17 1013.3 1013.3 0.0
20/05:30pm 30.6 27.6 14.7 38 9.7 N 24 32 13 17 1012.9 1012.9 0.0
20/05:00pm 31.7 29.2 15.2 36 10.2 N 22 30 12 16 1012.7 1012.7 0.0
20/04:30pm 32.8 30.9 15.8 36 10.6 N 20 30 11 16 1012.4 1012.4 0.0
20/04:00pm 35.8 35.5 10.1 21 14.9 NW 2 11 1 6 1012.1 1012.1 0.0
20/03:30pm 36.2 34.1 9.7 20 15.3 NNE 11 15 6 8 1011.7 1011.7 0.0
20/03:00pm 36.2 34.1 9.7 20 15.3 E 11 15 6 8 1011.5 1011.5 0.0
20/02:30pm 36.5 33.7 9.9 20 15.5 ESE 15 20 8 11 1011.4 1011.4 0.0
20/02:00pm 35.9 33.7 9.4 20 15.3 SSE 11 20 6 11 1011.4 1011.4 0.0
20/01:30pm 36.9 34.5 10.2 20 15.6 NE 13 20 7 11 1011.6 1011.6 0.0
20/01:00pm 36.2 34.5 9.7 20 15.3 E 9 15 5 8 1012.0 1012.0 0.0
20/12:30pm 36.4 35.5 10.6 21 15.1 SE 6 15 3 8 1012.4 1012.4 0.0
20/12:00pm 36.2 35.1 11.8 23 14.6 SE 9 15 5 8 1013.0 1013.0 0.0
20/11:30am 35.4 34.6 14.1 28 13.1 NW 11 17 6 9 1013.5 1013.5 0.0
20/11:00am 34.2 34.4 14.1 29 12.3 SW 6 13 3 7 1014.2 1014.2 0.0
20/10:30am 33.2 32.3 14.8 33 11.3 WSW 13 17 7 9 1014.6 1014.6 0.0
20/10:00am 32.0 31.6 15.1 36 10.4 WSW 11 17 6 9 1014.9 1014.9 0.0
20/09:30am 30.9 31.1 15.7 39 9.4 WSW 9 15 5 8 1015.3 1015.3 0.0
20/09:00am 29.5 30.2 15.6 43 8.6 WSW 6 11 3 6 1015.5 1015.5 0.0
20/08:30am 28.1 28.4 15.1 45 7.9 SW 7 9 4 5 1015.6 1015.6 0.0
20/08:00am 27.6 28.4 14.9 45 7.7 WNW 4 7 2 4 1015.5 1015.5 0.0
20/07:30am 26.3 26.7 15.4 51 6.6 WSW 7 9 4 5 1015.3 1015.3 0.0
20/07:00am 24.9 24.7 15.8 57 5.5 SSW 11 13 6 7 1015.0 1015.0 0.0
20/06:30am 22.8 22.6 15.6 64 4.3 S 11 13 6 7 1014.8 1014.8 0.0
20/06:00am 20.6 21.0 14.7 69 3.5 S 6 9 3 5 1014.4 1014.4 0.0
20/05:30am 20.5 20.5 13.7 65 3.9 W 6 7 3 4 1014.2 1014.2 0.0
20/05:00am 21.3 22.1 15.8 71 3.3 WNW 6 6 3 3 1013.9 1013.9 0.0
20/04:30am 21.1 21.9 15.9 72 3.1 WNW 6 6 3 3 1013.9 1013.9 0.0
20/04:00am 21.0 21.6 15.3 70 3.4 W 6 7 3 4 1013.8 1013.8 0.0
20/03:30am 21.4 21.9 15.5 69 3.5 WNW 7 7 4 4 1013.6 1013.6 0.0
20/03:00am 21.4 21.8 15.3 68 3.6 NW 7 9 4 5 1013.5 1013.5 0.0
20/02:30am 22.1 24.1 16.1 69 3.6 CALM 0 0 0 0 1013.6 1013.6 0.0
20/02:00am 21.7 23.5 15.5 68 3.7 CALM 0 0 0 0 1013.7 1013.7 0.0
20/01:30am 20.6 21.6 13.1 62 4.3 CALM 0 0 0 0 1013.7 1013.7 0.0
20/01:00am 21.5 21.6 15.6 69 3.5 ESE 9 11 5 6 1013.7 1013.7 0.0
20/12:30am 21.5 21.0 14.9 66 3.9 ESE 11 11 6 6 1013.7 1013.7 0.0
20/12:00am 22.1 22.6 15.5 66 3.9 E 7 9 4 5 1013.9 1013.9 0.0
 
Date/Time
WST
Temp
°C
App
Temp
°C
Dew
Point
Rel
Hum
%
Delta-T
°C
Wind Press
QNH
hPa
Press
MSL
hPa
Rain
since 9 am
mm
Dir
 
Spd
km/h
Gust
km/h
Spd
kts
Gust
kts
19/11:30pm 23.3 24.3 16.4 65 4.2 E 6 7 3 4 1014.1 1014.1 0.0
19/11:00pm 22.8 23.3 15.1 62 4.6 ESE 6 9 3 5 1014.1 1014.1 0.0
19/10:30pm 23.3 22.8 14.8 59 5.0 ESE 11 13 6 7 1014.3 1014.3 0.0
19/10:00pm 24.2 24.5 15.1 56 5.4 E 7 9 4 5 1014.3 1014.3 0.0
19/09:30pm 24.3 24.6 15.0 56 5.6 ENE 7 7 4 4 1014.2 1014.2 0.0
19/09:00pm 24.7 24.4 14.5 53 6.1 ENE 9 11 5 6 1014.4 1014.4 0.0
19/08:30pm 24.7 24.3 14.2 52 6.2 SSE 9 13 5 7 1014.3 1014.3 0.0
19/08:00pm 26.7 26.8 15.4 50 6.9 SW 9 13 5 7 1014.0 1014.0 0.0
19/07:30pm 27.9 27.9 16.2 49 7.2 SSW 11 17 6 9 1013.8 1013.8 0.0
19/07:00pm 28.8 29.0 14.2 40 8.8 NW 6 11 3 6 1013.5 1013.5 0.0
19/06:30pm 30.0 29.0 14.5 38 9.4 N 13 17 7 9 1012.9 1012.9 0.0
19/06:00pm 30.3 28.9 14.4 38 9.6 N 15 20 8 11 1012.5 1012.5 0.0

Other Formats:

Comma delimited format used in spreadsheet applications
http://www.bom.gov.au/fwo/IDW60801/IDW60801.95214.axf

JavaScript Object Notation format (JSON) in row-major order
http://www.bom.gov.au/fwo/IDW60801/IDW60801.95214.json